Time;durP1;ratioP1;P1;durP2;ratioP2;P2;SDS_P1;SDS_P2;PMS_P1;PMS_P2;Temp;Humidity;BMP_temperature;BMP_pressure;BME280_temperature;BME280_humidity;BME280_pressure;Samples;Min_cycle;Max_cycle;Signal;HPM_P1;HPM_P2
2021/11/07 00:05:04;;;;;;;;;21.25;18.00;;;;;18.44;57.28;99099.13;4829894;28;102459;-90
2021/11/07 00:07:50;;;;;;;;;16.00;15.25;;;;;18.46;57.59;99099.75;4813179;28;105463;-90
2021/11/07 00:10:31;;;;;;;;;18.25;17.75;;;;;18.48;57.13;99092.94;4812844;28;102825;-86
2021/11/07 00:13:14;;;;;;;;;18.75;17.00;;;;;18.50;57.74;99092.72;4825368;29;102442;-90
2021/11/07 00:15:44;;;;;;;;;15.67;14.67;;;;;18.52;57.00;99090.56;4820178;29;102577;-90
2021/11/07 00:18:16;;;;;;;;;16.67;16.00;;;;;18.54;57.62;99075.59;4819574;28;103662;-88
2021/11/07 00:23:56;;;;;;;;;22.50;16.50;;;;;18.58;56.94;99076.78;4809661;29;102625;-89
2021/11/07 00:26:28;;;;;;;;;14.75;13.25;;;;;18.59;57.23;99070.22;4819383;28;102919;-89
2021/11/07 00:29:10;;;;;;;;;16.33;14.33;;;;;18.61;56.61;99067.22;4811063;28;105049;-89
2021/11/07 00:32:08;;;;;;;;;16.25;15.75;;;;;18.62;56.69;99067.00;4824322;29;102347;-89
2021/11/07 00:35:08;;;;;;;;;15.33;15.00;;;;;18.62;56.69;99056.03;4805916;29;110490;-89
2021/11/07 00:37:39;;;;;;;;;21.67;17.00;;;;;18.64;57.02;99050.34;4803291;28;103977;-89
2021/11/07 00:40:32;;;;;;;;;19.75;19.00;;;;;18.66;56.49;99059.97;4818778;29;104167;-89
2021/11/07 00:43:09;;;;;;;;;19.00;17.75;;;;;18.68;56.32;99059.72;4806230;28;102648;-88
2021/11/07 00:53:52;;;;;;;;;16.00;15.67;;;;;18.73;56.02;99040.66;4765382;29;102259;-89
2021/11/07 01:01:24;;;;;;;;;18.00;14.33;;;;;18.76;55.70;99014.66;4795171;29;108914;-88
2021/11/07 01:03:51;;;;;;;;;16.67;16.67;;;;;18.77;56.08;99017.19;4814904;29;103828;-85
2021/11/07 01:06:19;;;;;;;;;18.25;17.00;;;;;18.78;55.87;99007.84;4813974;28;102617;-89
2021/11/07 01:08:48;;;;;;;;;19.67;17.67;;;;;18.79;56.12;99011.44;4811163;29;102307;-89
2021/11/07 01:11:15;;;;;;;;;19.00;16.33;;;;;18.81;55.95;99012.03;4826070;29;104392;-88
2021/11/07 01:13:43;;;;;;;;;19.33;17.00;;;;;18.80;55.88;98999.41;4805251;29;102181;-89
2021/11/07 01:16:10;;;;;;;;;20.33;19.33;;;;;18.80;55.94;98993.94;4819436;28;102506;-89
2021/11/07 01:18:38;;;;;;;;;19.67;17.00;;;;;18.80;55.57;98983.81;4816363;29;102778;-88
2021/11/07 01:21:05;;;;;;;;;18.75;18.00;;;;;18.80;55.24;98983.81;4808776;29;104128;-89
2021/11/07 01:23:40;;;;;;;;;18.00;17.00;;;;;18.82;55.66;98995.34;4807020;29;102757;-89
2021/11/07 01:26:22;;;;;;;;;19.00;16.25;;;;;18.83;55.60;99004.38;4819396;28;102176;-89
2021/11/07 01:28:54;;;;;;;;;15.33;13.67;;;;;18.82;55.76;98991.78;4822812;29;102616;-88
2021/11/07 01:31:22;;;;;;;;;18.00;16.00;;;;;18.83;55.35;98990.69;4815126;28;109833;-83
2021/11/07 01:33:50;;;;;;;;;17.25;15.50;;;;;18.83;55.23;98979.72;4800707;29;102429;-88
2021/11/07 01:36:42;;;;;;;;;22.50;19.50;;;;;18.83;55.32;98985.22;4818470;28;102554;-89
2021/11/07 01:42:16;;;;;;;;;23.50;18.50;;;;;18.84;55.11;98989.63;4800393;29;108727;-89
2021/11/07 01:44:58;;;;;;;;;20.00;19.00;;;;;18.84;55.40;98981.41;4818597;28;103111;-89
2021/11/07 01:47:26;;;;;;;;;19.75;18.25;;;;;18.84;55.25;98974.00;4806612;29;103212;-88
2021/11/07 01:49:53;;;;;;;;;19.75;18.50;;;;;18.83;55.03;98975.09;4828755;29;103114;-88
2021/11/07 01:52:25;;;;;;;;;19.25;17.75;;;;;18.84;55.17;98978.66;4815666;29;104018;-88
2021/11/07 01:54:58;;;;;;;;;18.00;16.67;;;;;18.84;55.00;98973.19;4800990;28;103255;-83
2021/11/07 01:57:29;;;;;;;;;18.75;17.00;;;;;18.85;54.96;98967.47;4807589;28;102168;-88
2021/11/07 01:59:59;;;;;;;;;19.67;18.33;;;;;18.85;54.97;98953.75;4814086;29;102685;-89
2021/11/07 02:02:28;;;;;;;;;19.33;16.00;;;;;18.85;54.55;98972.09;4759685;29;104821;-88
2021/11/07 02:04:55;;;;;;;;;18.00;16.75;;;;;18.84;54.90;98971.28;4783052;29;102649;-89
2021/11/07 02:07:23;;;;;;;;;19.00;17.25;;;;;18.85;54.61;98964.72;4809340;29;102560;-89
2021/11/07 02:09:50;;;;;;;;;23.25;19.50;;;;;18.85;54.84;98953.75;4798265;28;102328;-89
2021/11/07 02:12:18;;;;;;;;;18.00;16.00;;;;;18.86;54.93;98943.63;4794057;29;104332;-89
2021/11/07 02:14:45;;;;;;;;;20.25;18.50;;;;;18.85;55.14;98942.81;4819342;29;102637;-89
2021/11/07 02:17:13;;;;;;;;;20.25;16.75;;;;;18.85;55.00;98934.59;4809205;29;102717;-89
2021/11/07 02:19:44;;;;;;;;;18.50;18.25;;;;;18.84;54.83;98934.81;4819305;28;102188;-89
2021/11/07 02:22:12;;;;;;;;;21.50;19.75;;;;;18.84;54.82;98943.03;4819957;29;104308;-89
2021/11/07 02:24:41;;;;;;;;;16.33;16.00;;;;;18.84;54.74;98945.78;4815623;28;101991;-87
2021/11/07 02:27:08;;;;;;;;;17.33;16.67;;;;;18.83;54.36;98938.63;4814501;28;102148;-88
2021/11/07 02:29:38;;;;;;;;;21.75;19.00;;;;;18.84;54.64;98932.06;4789955;29;102491;-89
2021/11/07 02:32:06;;;;;;;;;21.00;17.25;;;;;18.83;54.14;98927.66;4797262;29;104095;-89
2021/11/07 02:34:34;;;;;;;;;18.67;18.00;;;;;18.84;54.64;98934.81;4809529;29;103853;-89
2021/11/07 02:37:01;;;;;;;;;20.00;18.00;;;;;18.83;54.26;98930.41;4788913;29;102248;-90
2021/11/07 02:39:28;;;;;;;;;21.00;17.00;;;;;18.83;54.66;98928.50;4811992;29;103334;-89
2021/11/07 02:41:58;;;;;;;;;19.33;16.67;;;;;18.84;54.63;98929.34;4812268;29;104299;-89
2021/11/07 02:44:32;;;;;;;;;18.25;16.75;;;;;18.81;54.56;98919.72;4815701;28;102162;-88
2021/11/07 02:47:01;;;;;;;;;22.00;19.33;;;;;18.81;54.44;98918.88;4811815;28;103433;-89
2021/11/07 02:49:28;;;;;;;;;18.75;18.00;;;;;18.80;54.45;98900.78;4822471;28;102193;-83
2021/11/07 02:51:57;;;;;;;;;20.67;19.00;;;;;18.81;53.74;98907.91;4820562;28;104061;-83
2021/11/07 02:54:24;;;;;;;;;17.25;16.50;;;;;18.80;54.09;98917.22;4803176;29;105294;-83
2021/11/07 02:56:51;;;;;;;;;20.50;16.50;;;;;18.81;54.12;98924.34;4822926;29;102524;-83
2021/11/07 02:59:23;;;;;;;;;20.00;16.75;;;;;18.80;54.13;98907.09;4823385;28;102599;-83
2021/11/07 03:01:52;;;;;;;;;19.67;19.00;;;;;18.79;53.84;98905.41;4818956;28;109049;-83
2021/11/07 03:04:19;;;;;;;;;18.00;16.25;;;;;18.79;54.15;98894.47;4792257;29;103660;-83
2021/11/07 03:06:46;;;;;;;;;22.33;17.33;;;;;18.80;54.38;98901.59;4812809;29;103502;-83
2021/11/07 03:09:19;;;;;;;;;15.00;11.00;;;;;18.79;54.40;98891.72;4808322;29;102367;-83
2021/11/07 03:11:46;;;;;;;;;20.33;16.33;;;;;18.79;53.96;98885.41;4819049;29;104151;-83
2021/11/07 03:14:21;;;;;;;;;20.25;17.00;;;;;18.79;53.80;98885.41;4801253;29;102661;-83
2021/11/07 03:16:48;;;;;;;;;17.00;15.67;;;;;18.77;53.88;98880.19;4790747;29;102337;-83
2021/11/07 03:19:15;;;;;;;;;17.25;16.00;;;;;18.77;53.88;98885.66;4799417;29;104306;-83
2021/11/07 03:21:43;;;;;;;;;19.50;18.00;;;;;18.78;53.78;98890.03;4800031;29;103868;-83
2021/11/07 03:24:11;;;;;;;;;18.75;15.75;;;;;18.77;54.30;98885.66;4802264;29;102567;-83
2021/11/07 03:26:38;;;;;;;;;18.67;16.00;;;;;18.76;54.14;98884.00;4781413;29;102665;-83
2021/11/07 03:29:08;;;;;;;;;16.75;15.75;;;;;18.76;53.69;98881.25;4824359;28;102880;-83
2021/11/07 03:31:55;;;;;;;;;17.67;15.00;;;;;18.76;53.83;98880.44;4817161;29;103071;-83
2021/11/07 03:34:29;;;;;;;;;19.33;16.67;;;;;18.75;54.20;98876.84;4804125;29;107093;-83
2021/11/07 03:36:58;;;;;;;;;24.75;17.75;;;;;18.75;54.18;98886.97;4812247;28;102237;-82
2021/11/07 03:39:27;;;;;;;;;19.00;15.33;;;;;18.75;53.80;98893.28;4822847;28;103999;-83
2021/11/07 03:41:57;;;;;;;;;8.00;5.33;;;;;18.73;53.57;98893.53;4793168;29;104329;-83
2021/11/07 03:44:24;;;;;;;;;16.67;16.33;;;;;18.75;54.00;98896.03;4802302;28;103768;-83
2021/11/07 03:46:53;;;;;;;;;16.33;15.67;;;;;18.73;53.40;98890.78;4829742;29;102596;-83
2021/11/07 03:49:20;;;;;;;;;20.67;19.00;;;;;18.73;53.82;98881.75;4809007;29;102673;-83
2021/11/07 03:51:48;;;;;;;;;19.67;17.00;;;;;18.73;53.55;98879.84;4803710;29;104089;-83
2021/11/07 03:54:17;;;;;;;;;18.67;15.00;;;;;18.73;53.93;98884.50;4820320;29;104277;-83
2021/11/07 03:56:44;;;;;;;;;20.25;17.50;;;;;18.73;53.38;98879.03;4819679;29;102422;-83
2021/11/07 03:59:11;;;;;;;;;17.67;14.67;;;;;18.71;53.46;98892.97;4813713;28;102518;-83
2021/11/07 04:01:38;;;;;;;;;17.67;16.00;;;;;18.71;53.63;98873.78;4810854;28;104164;-82
2021/11/07 04:04:05;;;;;;;;;17.33;16.67;;;;;18.71;53.70;98875.69;4806910;29;102365;-83
2021/11/07 04:06:33;;;;;;;;;19.25;17.50;;;;;18.71;53.59;98870.22;4819653;28;102515;-83
2021/11/07 04:09:00;;;;;;;;;16.75;14.25;;;;;18.69;53.86;98864.97;4823162;28;102261;-83
2021/11/07 04:11:27;;;;;;;;;15.67;14.00;;;;;18.70;53.73;98863.06;4807323;29;104048;-83
2021/11/07 04:13:55;;;;;;;;;18.00;14.33;;;;;18.70;53.61;98860.31;4811720;29;105155;-83
2021/11/07 04:16:21;;;;;;;;;16.75;16.25;;;;;18.69;53.64;98856.75;4817005;28;104345;-83
2021/11/07 04:18:48;;;;;;;;;20.75;17.25;;;;;18.68;53.08;98855.13;4824790;29;102433;-83
2021/11/07 04:21:15;;;;;;;;;17.67;15.00;;;;;18.69;53.27;98839.47;4791830;29;104033;-83
2021/11/07 04:23:42;;;;;;;;;14.50;14.25;;;;;18.69;53.59;98834.84;4808352;28;103006;-83
2021/11/07 04:26:10;;;;;;;;;18.75;16.75;;;;;18.70;53.63;98824.72;4817846;28;108075;-83
2021/11/07 04:28:37;;;;;;;;;16.00;14.00;;;;;18.69;53.37;98823.88;4822788;28;102666;-83
2021/11/07 04:31:04;;;;;;;;;16.00;13.67;;;;;18.68;53.49;98803.06;4798230;29;103513;-83
2021/11/07 04:33:32;;;;;;;;;16.75;15.50;;;;;18.68;53.53;98805.81;4827769;28;102390;-83
2021/11/07 04:35:59;;;;;;;;;17.67;15.67;;;;;18.68;53.02;98808.53;4797375;29;103857;-83
2021/11/07 04:38:27;;;;;;;;;20.25;17.25;;;;;18.68;53.32;98803.06;4800099;29;103019;-83
2021/11/07 04:40:55;;;;;;;;;17.50;16.25;;;;;18.67;53.61;98798.66;4827413;28;104119;-83
2021/11/07 04:43:22;;;;;;;;;14.00;13.25;;;;;18.67;53.69;98798.66;4823277;29;103511;-83
2021/11/07 04:45:50;;;;;;;;;12.00;10.00;;;;;18.67;53.34;98798.66;4797462;29;102273;-83
2021/11/07 04:48:17;;;;;;;;;15.33;14.67;;;;;18.67;53.15;98790.44;4826015;28;102784;-83
2021/11/07 04:50:46;;;;;;;;;20.67;16.33;;;;;18.66;52.97;98786.03;4821716;29;104251;-83
2021/11/07 04:53:15;;;;;;;;;11.33;10.33;;;;;18.66;53.51;98783.28;4812421;28;102646;-83
2021/11/07 04:55:43;;;;;;;;;20.33;16.00;;;;;18.67;53.37;98775.91;4798568;29;102704;-83
2021/11/07 04:58:10;;;;;;;;;18.67;17.00;;;;;18.66;53.29;98769.59;4805047;29;102714;-83
2021/11/07 05:00:37;;;;;;;;;14.00;13.00;;;;;18.67;53.70;98763.06;4817894;29;104037;-83
2021/11/07 05:03:05;;;;;;;;;15.00;15.00;;;;;18.67;53.43;98759.47;4782584;29;102545;-83
2021/11/07 05:05:32;;;;;;;;;18.67;15.67;;;;;18.66;53.14;98757.81;4804264;29;102432;-83
2021/11/07 05:07:59;;;;;;;;;16.67;14.33;;;;;18.66;53.07;98749.59;4800702;29;102896;-83
2021/11/07 05:10:29;;;;;;;;;17.00;14.00;;;;;18.65;53.01;98746.03;4812347;29;104288;-83
2021/11/07 05:12:56;;;;;;;;;15.67;13.33;;;;;18.65;53.05;98746.03;4821176;28;104350;-83
2021/11/07 05:15:23;;;;;;;;;15.25;14.50;;;;;18.65;53.22;98751.50;4797950;29;102515;-83
2021/11/07 05:17:51;;;;;;;;;16.00;13.00;;;;;18.64;53.02;98738.88;4825969;28;102650;-83
2021/11/07 05:20:18;;;;;;;;;15.33;15.00;;;;;18.64;53.51;98733.41;4807965;29;104079;-83
2021/11/07 05:22:45;;;;;;;;;18.25;16.00;;;;;18.64;52.92;98733.41;4819881;28;102193;-82
2021/11/07 05:25:12;;;;;;;;;18.33;16.33;;;;;18.64;53.06;98721.63;4821352;28;105207;-83
2021/11/07 05:27:40;;;;;;;;;19.33;16.33;;;;;18.65;53.25;98706.84;4825965;29;102572;-83
2021/11/07 05:30:08;;;;;;;;;15.67;13.00;;;;;18.65;53.04;98713.16;4812739;28;103112;-82
2021/11/07 05:32:35;;;;;;;;;17.00;14.00;;;;;18.66;53.11;98714.00;4822365;28;110016;-82
2021/11/07 05:35:03;;;;;;;;;19.00;13.33;;;;;18.64;53.30;98705.22;4818289;29;102495;-83
2021/11/07 05:37:30;;;;;;;;;14.00;11.67;;;;;18.65;53.36;98699.47;4816105;28;103600;-83
2021/11/07 05:39:57;;;;;;;;;14.00;11.33;;;;;18.62;53.02;98694.50;4821029;28;104294;-83
2021/11/07 05:42:24;;;;;;;;;15.00;14.00;;;;;18.65;53.23;98710.41;4829600;29;102328;-82
2021/11/07 05:44:51;;;;;;;;;15.67;13.33;;;;;18.64;53.25;98694.25;4818266;29;103464;-83
2021/11/07 05:47:18;;;;;;;;;17.33;14.67;;;;;18.64;53.25;98688.78;4819513;28;102662;-83
2021/11/07 05:49:45;;;;;;;;;15.67;14.33;;;;;18.65;52.93;98690.41;4818139;29;104088;-83
2021/11/07 05:52:12;;;;;;;;;16.00;14.00;;;;;18.65;53.55;98690.41;4814687;29;103455;-82
2021/11/07 05:54:40;;;;;;;;;14.00;13.00;;;;;18.64;53.01;98681.34;4814568;28;102423;-83
2021/11/07 05:57:07;;;;;;;;;19.00;16.67;;;;;18.64;52.78;98686.84;4818936;28;104124;-83
2021/11/07 05:59:34;;;;;;;;;0.00;0.00;;;;;18.63;53.42;98681.63;4818713;28;104328;-83
2021/11/07 06:02:02;;;;;;;;;15.67;12.67;;;;;18.63;52.88;98682.47;4818410;28;102402;-83
2021/11/07 06:04:29;;;;;;;;;14.67;12.67;;;;;18.64;53.46;98681.34;4819397;29;103685;-83
2021/11/07 06:06:56;;;;;;;;;14.00;12.67;;;;;18.63;52.99;98679.72;4815936;29;109796;-83
2021/11/07 06:09:23;;;;;;;;;14.00;12.33;;;;;18.63;53.15;98684.38;4788262;29;104031;-83
2021/11/07 06:11:50;;;;;;;;;12.00;12.00;;;;;18.62;53.11;98683.53;4799843;29;104558;-83
2021/11/07 06:14:17;;;;;;;;;12.33;12.33;;;;;18.64;53.16;98692.31;4803410;28;102633;-83
2021/11/07 06:16:45;;;;;;;;;14.00;12.67;;;;;18.63;52.69;98685.19;4820851;29;102548;-83
2021/11/07 06:19:12;;;;;;;;;12.67;12.00;;;;;18.64;53.46;98694.25;4813138;28;104295;-83
2021/11/07 06:21:41;;;;;;;;;13.67;10.67;;;;;18.64;52.99;98695.06;4817374;29;102218;-83
2021/11/07 06:24:12;;;;;;;;;12.00;12.00;;;;;18.64;53.36;98691.50;4808517;29;103462;-83
2021/11/07 06:26:39;;;;;;;;;2.00;2.00;;;;;18.64;52.70;98691.50;4791352;29;103036;-83
2021/11/07 06:29:06;;;;;;;;;11.33;11.33;;;;;18.64;52.95;98694.25;4809661;29;104269;-82
2021/11/07 06:31:33;;;;;;;;;12.33;11.67;;;;;18.64;52.84;98691.50;4797848;29;103288;-83
2021/11/07 06:34:00;;;;;;;;;15.33;13.00;;;;;18.62;53.26;98686.28;4820505;28;102467;-83
2021/11/07 06:36:27;;;;;;;;;14.33;10.00;;;;;18.63;53.03;98676.16;4822867;29;103397;-83
2021/11/07 06:38:54;;;;;;;;;14.33;12.00;;;;;18.62;53.23;98680.78;4819378;29;103964;-83
2021/11/07 06:41:22;;;;;;;;;14.00;11.00;;;;;18.65;53.02;98676.72;4802383;29;102713;-83
2021/11/07 06:43:49;;;;;;;;;14.00;13.00;;;;;18.62;53.03;98669.00;4811124;28;103796;-83
2021/11/07 06:46:16;;;;;;;;;10.00;9.33;;;;;18.63;53.47;98657.81;4822743;29;102482;-82
2021/11/07 06:48:44;;;;;;;;;12.00;11.00;;;;;18.62;53.43;98661.63;4824220;28;105533;-82
2021/11/07 06:51:11;;;;;;;;;14.00;13.00;;;;;18.60;52.96;98663.78;4803970;29;102829;-83
2021/11/07 06:53:38;;;;;;;;;14.00;13.00;;;;;18.62;52.76;98655.31;4797873;29;102913;-82
2021/11/07 06:56:06;;;;;;;;;11.00;11.00;;;;;18.62;52.96;98634.25;4803834;29;102473;-83
2021/11/07 06:58:33;;;;;;;;;11.33;11.33;;;;;18.62;52.95;98642.44;4816462;28;104022;-82
2021/11/07 07:01:03;;;;;;;;;11.00;11.00;;;;;18.63;53.13;98633.16;4807351;29;102549;-82
2021/11/07 07:03:30;;;;;;;;;13.33;11.33;;;;;18.62;53.15;98620.53;4818285;29;102625;-83
2021/11/07 07:05:57;;;;;;;;;12.00;12.00;;;;;18.63;53.03;98622.22;4801940;29;110892;-83
2021/11/07 07:08:28;;;;;;;;;10.67;10.00;;;;;18.62;53.21;98627.94;4828429;28;104106;-83
2021/11/07 07:11:09;;;;;;;;;13.33;10.33;;;;;18.62;52.63;98616.97;4815603;29;102600;-83
2021/11/07 07:13:52;;;;;;;;;11.33;9.67;;;;;18.62;53.29;98617.81;4813012;29;102558;-82
2021/11/07 07:16:45;;;;;;;;;11.33;11.00;;;;;18.64;53.08;98625.78;4814213;29;105659;-82
2021/11/07 07:19:17;;;;;;;;;13.00;12.33;;;;;18.62;52.95;98623.28;4789723;29;109282;-83
2021/11/07 07:32:39;;;;;;;;;12.67;11.00;;;;;18.64;53.35;98626.56;4805920;29;102672;-83
2021/11/07 07:35:07;;;;;;;;;11.33;10.00;;;;;18.64;53.06;98631.25;4790318;29;102236;-82
2021/11/07 07:37:34;;;;;;;;;10.33;10.33;;;;;18.64;52.65;98634.78;4802758;29;102947;-83
2021/11/07 07:40:02;;;;;;;;;11.00;11.00;;;;;18.64;52.48;98623.03;4817268;29;104157;-83
2021/11/07 07:42:31;;;;;;;;;14.00;12.00;;;;;18.64;52.72;98618.38;4801615;29;102620;-83
2021/11/07 07:45:01;;;;;;;;;9.33;8.67;;;;;18.64;52.86;98617.56;4821311;29;102360;-83
2021/11/07 07:47:29;;;;;;;;;12.33;11.00;;;;;18.63;52.47;98615.91;4816446;29;102486;-83
2021/11/07 07:49:58;;;;;;;;;8.67;8.00;;;;;18.64;52.56;98607.41;4798493;29;105300;-83
2021/11/07 07:52:26;;;;;;;;;11.33;11.33;;;;;18.64;52.62;98612.88;4804128;28;102172;-83
2021/11/07 07:54:54;;;;;;;;;11.00;9.00;;;;;18.64;52.81;98614.81;4809240;28;102770;-82
2021/11/07 07:57:21;;;;;;;;;13.00;10.67;;;;;18.64;52.57;98612.88;4796672;29;102702;-83
2021/11/07 07:59:48;;;;;;;;;9.00;9.00;;;;;18.65;52.72;98608.25;4819971;28;103776;-82
2021/11/07 08:02:16;;;;;;;;;10.33;9.67;;;;;18.63;52.93;98600.28;4815332;28;103156;-83
2021/11/07 08:04:43;;;;;;;;;9.00;9.00;;;;;18.64;52.69;98596.44;4806431;29;105111;-83
2021/11/07 08:07:10;;;;;;;;;12.00;10.67;;;;;18.65;52.54;98595.38;4805578;29;102700;-82
2021/11/07 08:09:37;;;;;;;;;12.00;10.67;;;;;18.66;53.04;98599.78;4784155;29;104074;-83
2021/11/07 08:12:04;;;;;;;;;12.00;11.67;;;;;18.65;52.71;98592.63;4812140;29;103486;-82
2021/11/07 08:14:31;;;;;;;;;11.00;10.33;;;;;18.66;53.13;98588.81;4806503;29;102665;-83
2021/11/07 08:16:59;;;;;;;;;10.33;9.67;;;;;18.67;53.09;98579.53;4818474;29;103577;-83
2021/11/07 08:19:26;;;;;;;;;9.00;9.00;;;;;18.67;53.13;98576.78;4828193;29;104358;-82
2021/11/07 08:21:53;;;;;;;;;4.67;4.00;;;;;18.67;53.52;98565.84;4816964;29;102387;-82
2021/11/07 08:24:20;;;;;;;;;9.33;8.67;;;;;18.67;53.29;98554.88;4826936;28;102532;-82
2021/11/07 08:26:48;;;;;;;;;12.33;10.67;;;;;18.67;53.48;98552.16;4822426;28;102602;-82
2021/11/07 08:29:16;;;;;;;;;12.67;10.00;;;;;18.69;53.24;98563.66;4820065;29;104357;-84
2021/11/07 08:31:47;;;;;;;;;11.00;10.00;;;;;18.69;53.43;98552.69;4824542;28;103649;-84
2021/11/07 08:34:15;;;;;;;;;10.00;8.33;;;;;18.69;53.15;98552.69;4774021;29;103993;-84
2021/11/07 08:36:53;;;;;;;;;11.33;10.00;;;;;18.70;53.67;98565.31;4823187;29;102485;-83
2021/11/07 08:39:25;;;;;;;;;11.33;8.00;;;;;18.71;53.32;98569.72;4814698;28;104096;-83
2021/11/07 08:41:58;;;;;;;;;9.00;8.33;;;;;18.70;53.41;98559.84;4795857;29;102432;-84
2021/11/07 09:01:39;;;;;;;;;8.67;8.33;;;;;18.73;52.97;98510.00;4818248;29;108674;-83
2021/11/07 09:07:00;;;;;;;;;10.67;8.33;;;;;18.76;53.22;98516.09;4811383;28;102635;-83
2021/11/07 09:09:36;;;;;;;;;10.33;9.00;;;;;18.76;53.27;98514.19;4819534;29;102537;-83
2021/11/07 09:12:04;;;;;;;;;18.00;14.33;;;;;18.78;53.50;98513.94;4827068;28;110539;-83
2021/11/07 09:14:37;;;;;;;;;23.25;21.50;;;;;18.76;53.23;98495.00;4819706;28;102556;-83
2021/11/07 09:17:06;;;;;;;;;24.50;21.00;;;;;18.79;53.00;98499.94;4818458;28;102927;-83
2021/11/07 09:19:35;;;;;;;;;33.00;30.00;;;;;18.78;53.47;98502.97;4827430;29;104058;-84
2021/11/07 09:22:11;;;;;;;;;39.00;33.50;;;;;18.79;53.53;98501.88;4810679;29;108632;-83
2021/11/07 09:24:49;;;;;;;;;39.50;34.50;;;;;18.78;53.24;98494.75;4815964;28;105193;-84
2021/11/07 09:27:22;;;;;;;;;43.75;33.50;;;;;18.79;53.41;98493.63;4817879;29;102639;-84
2021/11/07 09:32:39;;;;;;;;;41.00;33.75;;;;;18.79;53.29;98490.91;4804890;28;108957;-84
2021/11/07 09:36:00;;;;;;;;;41.25;36.00;;;;;18.79;53.06;98489.00;4816915;29;103023;-84
2021/11/07 09:38:19;;;;;;;;;40.75;32.50;;;;;18.79;53.03;98482.69;4800140;28;103373;-84
2021/11/07 09:40:59;;;;;;;;;39.50;33.50;;;;;18.81;53.12;98483.28;4817320;28;102569;-84
2021/11/07 09:48:39;;;;;;;;;31.25;29.50;;;;;18.84;53.02;98466.31;4822484;29;103185;-84
2021/11/07 09:51:16;;;;;;;;;35.25;31.75;;;;;18.85;52.90;98459.75;4810570;29;103002;-84
2021/11/07 09:53:45;;;;;;;;;28.75;28.50;;;;;18.84;52.94;98460.81;4810548;28;104039;-84
2021/11/07 09:56:12;;;;;;;;;30.75;28.75;;;;;18.85;53.08;98448.78;4812608;29;102244;-84
2021/11/07 09:58:45;;;;;;;;;29.25;26.50;;;;;18.86;52.96;98451.28;4816961;28;102112;-84
2021/11/07 10:01:12;;;;;;;;;29.50;28.00;;;;;18.87;53.18;98441.13;4822350;29;102636;-84
2021/11/07 10:03:41;;;;;;;;;27.00;26.25;;;;;18.87;52.97;98432.91;4820004;29;104331;-84
2021/11/07 10:06:34;;;;;;;;;25.50;25.00;;;;;18.87;52.88;98416.47;4803961;29;103371;-84
2021/11/07 10:09:08;;;;;;;;;27.25;25.75;;;;;18.87;52.81;98425.50;4804924;28;103456;-83
2021/11/07 10:12:13;;;;;;;;;27.50;25.25;;;;;18.87;52.69;98419.22;4811211;28;102625;-84
2021/11/07 10:14:58;;;;;;;;;26.50;24.50;;;;;18.89;52.71;98395.13;4820356;29;108698;-84
2021/11/07 10:17:32;;;;;;;;;25.00;25.00;;;;;18.89;52.66;98390.47;4811896;28;102455;-84
2021/11/07 10:20:10;;;;;;;;;25.00;23.25;;;;;18.91;52.77;98392.97;4801206;29;102490;-84
2021/11/07 10:22:39;;;;;;;;;24.75;24.25;;;;;18.90;52.50;98386.66;4813800;28;102739;-84
2021/11/07 10:25:16;;;;;;;;;29.50;23.50;;;;;18.91;52.41;98382.00;4818275;28;103776;-84
2021/11/07 10:27:48;;;;;;;;;25.00;23.25;;;;;18.91;52.33;98377.34;4812879;28;102429;-85
2021/11/07 10:30:25;;;;;;;;;23.75;22.50;;;;;18.91;52.28;98382.00;4821679;28;102218;-84
2021/11/07 10:33:06;;;;;;;;;24.25;21.25;;;;;18.92;52.17;98380.91;4825336;29;102634;-84
2021/11/07 10:36:07;;;;;;;;;25.75;22.25;;;;;18.91;52.35;98374.59;4814521;28;113169;-84
2021/11/07 10:52:37;;;;;;;;;19.25;18.50;;;;;18.84;49.83;98327.41;4818636;28;102664;-84
2021/11/07 10:55:06;;;;;;;;;18.00;15.00;;;;;18.86;50.73;98327.16;4820761;28;104820;-85
2021/11/07 10:57:35;;;;;;;;;21.50;17.25;;;;;18.86;51.16;98325.25;4813971;28;103709;-88
2021/11/07 11:00:12;;;;;;;;;13.33;12.33;;;;;18.82;49.47;98329.59;4804138;29;102587;-84
2021/11/07 11:02:48;;;;;;;;;17.00;14.50;;;;;18.82;51.01;98323.31;4811152;28;103551;-84
2021/11/07 11:05:18;;;;;;;;;14.00;13.25;;;;;18.81;50.54;98329.84;4797228;29;102869;-83
2021/11/07 11:07:53;;;;;;;;;16.00;13.00;;;;;18.82;50.60;98323.31;4775194;29;105480;-84
2021/11/07 11:10:23;;;;;;;;;15.50;14.75;;;;;18.83;51.15;98324.94;4776206;29;105408;-83
2021/11/07 11:13:06;;;;;;;;;19.00;14.00;;;;;18.80;49.44;98314.50;4784477;29;103561;-84
2021/11/07 11:15:42;;;;;;;;;17.00;16.00;;;;;18.82;50.60;98304.13;4798144;29;102787;-84
2021/11/07 11:21:11;;;;;;;;;15.33;12.33;;;;;18.88;50.99;98303.06;4792654;29;103712;-84
2021/11/07 11:24:26;;;;;;;;;14.00;13.33;;;;;18.89;50.94;98285.53;4803699;29;103506;-89
2021/11/07 11:29:20;;;;;;;;;19.25;17.50;;;;;18.96;51.18;98278.75;4800720;29;104204;-91
2021/11/07 11:34:17;;;;;;;;;21.50;20.00;;;;;19.03;51.08;98264.81;4803643;29;102367;-90
2021/11/07 11:36:55;;;;;;;;;25.25;20.50;;;;;19.06;51.31;98265.13;4804396;28;102630;-91
2021/11/07 11:39:38;;;;;;;;;19.75;19.00;;;;;19.10;51.09;98274.47;4776301;29;109186;-90
2021/11/07 11:44:34;;;;;;;;;19.75;18.50;;;;;19.14;51.03;98261.03;4788115;29;103768;-90
2021/11/07 11:47:33;;;;;;;;;21.75;18.00;;;;;19.18;50.93;98265.72;4810830;29;102658;-90
2021/11/07 11:50:54;;;;;;;;;20.00;19.75;;;;;19.21;50.89;98256.16;4803582;29;108822;-91
2021/11/07 11:53:12;;;;;;;;;20.00;17.75;;;;;19.26;50.99;98255.38;4784073;29;105708;-90
2021/11/07 11:55:53;;;;;;;;;17.50;16.50;;;;;19.31;50.98;98248.00;4804125;29;102211;-91
2021/11/07 11:58:33;;;;;;;;;17.00;16.25;;;;;19.38;51.11;98245.84;4796579;29;102629;-91
2021/11/07 12:01:09;;;;;;;;;17.25;16.75;;;;;19.43;50.92;98242.31;4798076;29;109002;-91
2021/11/07 12:09:29;;;;;;;;;14.00;12.33;;;;;19.59;51.09;98224.84;4809596;29;103095;-96
2021/11/07 12:17:45;;;;;;;;;17.67;16.00;;;;;19.77;50.39;98216.13;4793558;29;104186;-93
2021/11/07 12:20:32;;;;;;;;;15.33;14.00;;;;;19.82;50.30;98202.44;4799312;29;102456;-90
2021/11/07 12:23:19;;;;;;;;;16.00;14.00;;;;;19.88;50.36;98206.03;4801892;29;108991;-91
2021/11/07 12:25:47;;;;;;;;;12.00;11.00;;;;;19.93;50.16;98203.28;4799402;29;102595;-89
2021/11/07 12:28:14;;;;;;;;;13.67;13.67;;;;;19.98;49.87;98206.06;4780123;29;103929;-87
2021/11/07 12:30:42;;;;;;;;;14.00;12.33;;;;;20.02;49.99;98199.75;4809675;29;103244;-90
2021/11/07 12:33:19;;;;;;;;;14.67;13.00;;;;;20.07;49.79;98192.63;4785359;29;104184;-92
2021/11/07 12:35:54;;;;;;;;;10.00;10.00;;;;;20.11;50.02;98200.03;4793066;29;102760;-89
2021/11/07 12:41:13;;;;;;;;;12.00;11.33;;;;;20.10;46.08;98189.31;4808336;29;102772;-92
2021/11/07 12:43:51;;;;;;;;;11.00;10.67;;;;;20.07;45.17;98195.38;4805090;29;103667;-85
2021/11/07 12:46:33;;;;;;;;;14.00;11.00;;;;;20.04;45.86;98178.34;4810397;29;102005;-91
2021/11/07 12:49:24;;;;;;;;;13.00;11.33;;;;;20.02;46.37;98186.03;4795882;29;104014;-93
2021/11/07 12:52:06;;;;;;;;;10.00;9.33;;;;;20.01;44.01;98183.56;4799771;29;102766;-91
2021/11/07 12:54:37;;;;;;;;;11.33;10.00;;;;;20.00;45.06;98174.50;4803038;29;109416;-92
2021/11/07 12:57:14;;;;;;;;;8.00;8.00;;;;;20.01;45.52;98175.31;4789504;29;105136;-90
2021/11/07 12:59:57;;;;;;;;;13.33;12.67;;;;;20.02;44.88;98164.06;4799900;29;102585;-92
2021/11/07 13:02:33;;;;;;;;;7.33;7.00;;;;;20.07;46.33;98155.03;4809372;29;102719;-92
2021/11/07 13:05:10;;;;;;;;;10.67;9.33;;;;;20.14;47.13;98161.06;4807903;29;108136;-91
2021/11/07 13:10:24;;;;;;;;;10.67;9.67;;;;;20.20;47.21;98154.47;4805801;29;103347;-92
2021/11/07 13:12:56;;;;;;;;;13.00;12.00;;;;;20.24;47.43;98155.56;4811985;29;103717;-90